Main page
METAR-TAF:

METAR-TAF

Airports :

Shiraz International Airport

Shiraz, Iran

latitude: 29-32N, longitude: 052-35E, elevation: 1486 m

Current weather observation

The report was made 17 minutes ago, at 19:30 UTC
Calm wind
Temperature 3°C
Humidity 52%
Pressure 1023 hPa
Visibility 10 km or more
no clouds below 1500 m and no cumulonimbus

METAR: OISS 271930Z 00000KT CAVOK 03/M06 Q1022 A3021

Time: 23:17 (19:47 UTC)

Forecast

The report was made 2 hours and 17 minutes ago, at 17:30 UTC
Forecast valid from 27 at 18 UTC to 28 at 24 UTC
Wind 6 kt from the Northwest
Visibility 10 km or more
no clouds below 1500 m and no cumulonimbus
Temporary
from 28 at 02 UTC to 28 at 06 UTC
Visibility: 4000 m
haze

TAF: OISS 271730Z 2718/2824 32006KT CAVOK TEMPO 2802/2806 4000 HZ

Weather observations and forecasts of more than 4000 airports (METAR and TAF reports).

The available stations are represented by yellow and red dots on the map.

Hover mouse over dot to see the name of the station.

Then click to see weather observations and forecasts.

To change the map : click on the green buttons with a black cross to zoom in, on the green button with a dash to zoom out, or on the green arrows for adjacent maps.


METAR-TAF: